createdAt,value
2022-10-31T00:01:35.603Z,14.70
2022-10-31T00:04:04.840Z,14.70
2022-10-31T00:06:33.657Z,14.70
2022-10-31T00:09:04.393Z,14.80
2022-10-31T00:11:33.097Z,14.80
2022-10-31T00:14:01.737Z,14.80
2022-10-31T00:16:31.017Z,14.80
2022-10-31T00:19:01.861Z,14.80
2022-10-31T00:21:31.897Z,15.00
2022-10-31T00:24:01.495Z,15.00
2022-10-31T00:26:31.666Z,15.00
2022-10-31T00:29:01.737Z,15.10
2022-10-31T00:31:31.027Z,15.20
2022-10-31T00:34:00.210Z,15.20
2022-10-31T00:36:28.875Z,15.20
2022-10-31T00:38:57.877Z,15.20
2022-10-31T00:41:26.588Z,15.20
2022-10-31T00:43:55.214Z,15.20
2022-10-31T00:46:23.776Z,15.20
2022-10-31T00:48:52.306Z,15.20
2022-10-31T00:51:20.879Z,15.20
2022-10-31T00:53:49.393Z,15.30
2022-10-31T00:56:17.875Z,15.30
2022-10-31T00:58:46.461Z,15.20
2022-10-31T01:01:15.140Z,15.20
2022-10-31T01:03:43.750Z,15.30
2022-10-31T01:06:14.464Z,15.20
2022-10-31T01:08:44.045Z,15.20
2022-10-31T01:11:15.137Z,15.20
2022-10-31T01:13:44.581Z,15.10
2022-10-31T01:16:15.475Z,15.00
2022-10-31T01:18:44.350Z,14.90
2022-10-31T01:21:27.654Z,14.80
2022-10-31T01:23:57.800Z,14.70
2022-10-31T01:26:29.223Z,14.60
2022-10-31T01:29:07.170Z,14.50
2022-10-31T01:31:38.611Z,14.50
2022-10-31T01:34:07.814Z,14.50
2022-10-31T01:36:38.997Z,14.60
2022-10-31T01:39:16.165Z,14.70
2022-10-31T01:41:47.638Z,14.60
2022-10-31T01:44:19.325Z,14.60
2022-10-31T01:46:53.645Z,14.60
2022-10-31T01:49:28.329Z,14.60
2022-10-31T01:52:08.774Z,14.60
2022-10-31T01:54:42.743Z,14.50
2022-10-31T01:57:13.927Z,14.70
2022-10-31T01:59:45.907Z,14.70
2022-10-31T02:02:15.685Z,14.80
2022-10-31T02:04:45.359Z,14.80
2022-10-31T02:07:20.063Z,14.80
2022-10-31T02:09:49.470Z,14.90
2022-10-31T02:12:19.403Z,14.90
2022-10-31T02:14:48.789Z,14.90
2022-10-31T02:17:17.446Z,14.90
2022-10-31T02:20:13.327Z,14.80
2022-10-31T02:22:54.141Z,14.80
2022-10-31T02:25:54.535Z,14.70
2022-10-31T02:28:26.167Z,14.60
2022-10-31T02:31:09.472Z,14.30
2022-10-31T02:33:43.751Z,14.10
2022-10-31T02:36:18.065Z,14.30
2022-10-31T02:38:54.864Z,14.30
2022-10-31T02:41:32.471Z,14.20
2022-10-31T02:44:04.040Z,14.00
2022-10-31T02:46:38.373Z,13.90
2022-10-31T02:49:15.802Z,13.70
2022-10-31T02:51:46.789Z,13.80
2022-10-31T02:54:21.131Z,13.50
2022-10-31T02:56:52.313Z,13.50
2022-10-31T02:59:21.731Z,13.60
2022-10-31T03:02:14.008Z,13.60
2022-10-31T03:05:05.057Z,13.50
2022-10-31T03:07:42.245Z,13.40
2022-10-31T03:10:34.948Z,13.10
2022-10-31T03:13:12.528Z,13.00
2022-10-31T03:15:50.112Z,12.90
2022-10-31T03:18:33.851Z,12.70
2022-10-31T03:21:05.474Z,12.80
2022-10-31T03:23:36.307Z,12.70
2022-10-31T03:26:07.650Z,12.60
2022-10-31T03:28:42.059Z,12.70
2022-10-31T03:31:12.916Z,12.70
2022-10-31T03:33:44.314Z,12.70
2022-10-31T03:36:16.053Z,12.80
2022-10-31T03:38:46.996Z,12.90
2022-10-31T03:41:18.657Z,12.90
2022-10-31T03:43:50.318Z,12.80
2022-10-31T03:46:19.023Z,12.70
2022-10-31T03:48:47.652Z,12.70
2022-10-31T03:51:19.212Z,12.70
2022-10-31T03:53:50.795Z,12.70
2022-10-31T03:56:28.259Z,12.70
2022-10-31T03:59:11.963Z,12.70
2022-10-31T04:01:44.048Z,12.90
2022-10-31T04:04:13.379Z,13.00
2022-10-31T04:06:44.674Z,13.00
2022-10-31T04:09:14.092Z,13.00
2022-10-31T04:11:51.987Z,13.20
2022-10-31T04:14:20.794Z,13.40
2022-10-31T04:16:49.377Z,13.50
2022-10-31T04:19:18.251Z,13.40
2022-10-31T04:21:46.708Z,13.40
2022-10-31T04:24:15.243Z,13.40
2022-10-31T04:26:43.863Z,13.30
2022-10-31T04:29:12.485Z,13.10
2022-10-31T04:31:41.001Z,12.90
2022-10-31T04:34:09.511Z,12.90
2022-10-31T04:36:38.000Z,12.60
2022-10-31T04:39:06.607Z,12.50
2022-10-31T04:41:35.106Z,12.90
2022-10-31T04:44:03.801Z,13.00
2022-10-31T04:46:32.265Z,13.00
2022-10-31T04:49:00.736Z,12.90
2022-10-31T04:51:29.255Z,13.00
2022-10-31T04:53:57.830Z,13.10
2022-10-31T04:56:26.295Z,13.00
2022-10-31T04:58:54.764Z,13.00
2022-10-31T05:01:23.343Z,12.60
2022-10-31T05:03:52.110Z,12.40
2022-10-31T05:06:20.929Z,12.20
2022-10-31T05:08:49.427Z,12.00
2022-10-31T05:11:17.909Z,11.80
2022-10-31T05:13:46.424Z,11.60
2022-10-31T05:16:14.852Z,11.60
2022-10-31T05:18:43.340Z,11.60
2022-10-31T05:21:11.868Z,11.50
2022-10-31T05:23:44.378Z,11.50
2022-10-31T05:26:10.644Z,11.50
2022-10-31T05:28:39.198Z,11.50
2022-10-31T05:31:07.722Z,11.40
2022-10-31T05:33:36.209Z,11.40
2022-10-31T05:36:05.069Z,11.20
2022-10-31T05:38:33.535Z,11.10
2022-10-31T05:41:02.107Z,11.00
2022-10-31T05:43:31.152Z,11.00
2022-10-31T05:46:00.371Z,11.00
2022-10-31T05:48:28.999Z,11.00
2022-10-31T05:50:57.535Z,11.00
2022-10-31T05:53:26.078Z,10.90
2022-10-31T05:55:54.630Z,10.90
2022-10-31T05:58:23.161Z,11.00
2022-10-31T06:00:51.739Z,11.00
2022-10-31T06:03:20.573Z,10.90
2022-10-31T06:05:52.276Z,10.80
2022-10-31T06:08:19.343Z,10.80
2022-10-31T06:10:47.938Z,10.80
2022-10-31T06:13:16.503Z,10.70
2022-10-31T06:15:45.108Z,10.70
2022-10-31T06:18:13.760Z,10.70
2022-10-31T06:20:42.343Z,10.60
2022-10-31T06:23:12.426Z,10.50
2022-10-31T06:25:40.899Z,10.50
2022-10-31T06:28:09.586Z,10.60
2022-10-31T06:30:38.070Z,10.60
2022-10-31T06:33:07.249Z,10.50
2022-10-31T06:35:35.707Z,10.50
2022-10-31T06:38:04.805Z,10.50
2022-10-31T06:40:33.769Z,10.60
2022-10-31T06:43:03.005Z,10.60
2022-10-31T06:45:31.563Z,10.70
2022-10-31T06:50:30.631Z,10.90
2022-10-31T06:53:00.292Z,11.10
2022-10-31T06:55:29.224Z,11.10
2022-10-31T06:58:02.038Z,11.30
2022-10-31T07:00:31.686Z,11.40
2022-10-31T07:03:05.941Z,11.70
2022-10-31T07:05:35.019Z,12.00
2022-10-31T07:08:07.348Z,12.10
2022-10-31T07:10:40.362Z,12.30
2022-10-31T07:13:10.352Z,12.30
2022-10-31T07:15:40.524Z,12.40
2022-10-31T07:18:10.890Z,12.50
2022-10-31T07:20:39.736Z,12.50
2022-10-31T07:23:09.352Z,12.50
2022-10-31T07:25:38.262Z,12.50
2022-10-31T07:28:07.070Z,12.50
2022-10-31T07:30:35.671Z,12.50
2022-10-31T07:33:04.804Z,12.60
2022-10-31T07:35:35.580Z,12.60
2022-10-31T07:38:12.059Z,12.80
2022-10-31T07:40:41.757Z,12.90
2022-10-31T07:43:14.476Z,13.30
2022-10-31T07:45:42.888Z,13.40
2022-10-31T07:48:11.477Z,13.50
2022-10-31T07:50:40.913Z,13.60
2022-10-31T07:53:11.791Z,13.70
2022-10-31T07:55:40.905Z,13.90
2022-10-31T07:58:12.467Z,14.10
2022-10-31T08:00:43.181Z,14.10
2022-10-31T08:03:14.096Z,14.10
2022-10-31T08:05:42.898Z,14.10
2022-10-31T08:08:11.829Z,14.10
2022-10-31T08:10:41.397Z,14.00
2022-10-31T08:13:12.613Z,14.00
2022-10-31T08:15:42.713Z,14.10
2022-10-31T08:18:15.781Z,14.00
2022-10-31T08:20:45.337Z,13.90
2022-10-31T08:23:15.116Z,14.10
2022-10-31T08:25:44.024Z,14.30
2022-10-31T08:28:13.393Z,14.40
2022-10-31T08:30:43.166Z,14.40
2022-10-31T08:33:13.932Z,14.70
2022-10-31T08:35:43.045Z,14.80
2022-10-31T08:38:13.750Z,15.00
2022-10-31T08:40:42.517Z,15.10
2022-10-31T08:43:16.661Z,15.40
2022-10-31T08:45:46.731Z,15.20
2022-10-31T08:48:17.170Z,15.20
2022-10-31T08:50:46.827Z,15.60
2022-10-31T08:53:20.129Z,15.60
2022-10-31T08:55:49.268Z,16.00
2022-10-31T08:58:19.783Z,16.60
2022-10-31T09:00:50.652Z,16.90
2022-10-31T09:03:27.230Z,17.00
2022-10-31T09:06:01.033Z,17.10
2022-10-31T09:08:32.115Z,17.80
2022-10-31T09:11:01.143Z,17.70
2022-10-31T09:13:29.810Z,17.90
2022-10-31T09:15:59.611Z,18.00
2022-10-31T09:18:28.895Z,18.50
2022-10-31T09:21:00.105Z,18.70
2022-10-31T09:23:28.935Z,18.50
2022-10-31T09:25:58.523Z,18.50
2022-10-31T09:28:27.167Z,19.00
2022-10-31T09:30:56.214Z,19.10
2022-10-31T09:33:24.997Z,19.40
2022-10-31T09:35:53.532Z,19.10
2022-10-31T09:38:24.544Z,18.70
2022-10-31T09:40:56.118Z,18.80
2022-10-31T09:43:54.633Z,19.20
2022-10-31T09:46:42.720Z,20.20
2022-10-31T09:49:32.393Z,20.00
2022-10-31T09:52:15.736Z,20.50
2022-10-31T09:54:48.268Z,21.30
2022-10-31T09:57:19.899Z,21.60
2022-10-31T09:59:51.393Z,22.00
2022-10-31T10:02:31.590Z,22.40
2022-10-31T10:05:14.731Z,21.80
2022-10-31T10:08:04.440Z,22.10
2022-10-31T10:10:52.510Z,22.70
2022-10-31T10:13:27.014Z,22.80
2022-10-31T10:16:01.378Z,22.20
2022-10-31T10:18:35.904Z,22.40
2022-10-31T10:21:19.375Z,22.10
2022-10-31T10:24:12.206Z,22.20
2022-10-31T10:26:43.892Z,21.40
2022-10-31T10:29:18.434Z,22.30
2022-10-31T10:31:50.520Z,21.70
2022-10-31T10:34:34.238Z,21.60
2022-10-31T10:37:14.592Z,21.10
2022-10-31T10:39:48.919Z,20.40
2022-10-31T10:42:36.517Z,20.70
2022-10-31T10:45:35.040Z,21.20
2022-10-31T10:48:18.648Z,20.60
2022-10-31T10:50:50.444Z,20.50
2022-10-31T10:53:35.646Z,20.50
2022-10-31T10:56:19.416Z,20.80
2022-10-31T10:58:48.276Z,20.40
2022-10-31T11:01:17.479Z,20.60
2022-10-31T11:03:46.351Z,20.90
2022-10-31T11:06:27.104Z,20.80
2022-10-31T11:08:55.665Z,21.90
2022-10-31T11:11:31.298Z,21.50
2022-10-31T11:14:03.956Z,21.90
2022-10-31T11:16:40.461Z,22.70
2022-10-31T11:19:27.402Z,23.40
2022-10-31T11:21:56.132Z,24.00
2022-10-31T11:24:28.401Z,24.40
2022-10-31T11:27:15.069Z,25.30
2022-10-31T11:29:43.687Z,26.70
2022-10-31T11:32:18.077Z,26.10
2022-10-31T11:34:50.250Z,27.10
2022-10-31T11:37:36.173Z,25.90
2022-10-31T11:40:07.536Z,26.30
2022-10-31T11:42:42.402Z,27.20
2022-10-31T11:45:22.913Z,28.10
2022-10-31T11:47:59.647Z,26.70
2022-10-31T11:50:29.093Z,26.20
2022-10-31T11:52:57.954Z,27.00
2022-10-31T11:55:35.626Z,27.10
2022-10-31T11:58:05.312Z,26.90
2022-10-31T12:00:36.596Z,25.20
2022-10-31T12:03:26.023Z,24.70
2022-10-31T12:05:57.604Z,24.70
2022-10-31T12:08:29.099Z,24.70
2022-10-31T12:11:06.289Z,24.10
2022-10-31T12:13:37.909Z,23.50
2022-10-31T12:16:36.475Z,23.40
2022-10-31T12:19:13.835Z,23.30
2022-10-31T12:22:04.562Z,23.10
2022-10-31T12:25:03.207Z,22.40
2022-10-31T12:27:49.720Z,22.00
2022-10-31T12:30:23.277Z,22.10
2022-10-31T12:33:18.117Z,21.80
2022-10-31T12:35:52.737Z,21.70
2022-10-31T12:38:39.305Z,21.50
2022-10-31T12:41:22.884Z,21.60
2022-10-31T12:43:54.569Z,21.90
2022-10-31T12:46:28.873Z,21.60
2022-10-31T12:49:24.443Z,22.10
2022-10-31T12:52:25.826Z,22.30
2022-10-31T12:55:21.715Z,23.40
2022-10-31T12:57:56.024Z,23.80
2022-10-31T13:00:26.684Z,24.00
2022-10-31T13:03:03.877Z,24.50
2022-10-31T13:05:41.376Z,24.30
2022-10-31T13:08:16.209Z,24.70
2022-10-31T13:10:53.774Z,25.10
2022-10-31T13:13:28.292Z,24.80
2022-10-31T13:16:02.409Z,25.50
2022-10-31T13:18:36.605Z,24.90
2022-10-31T13:21:08.181Z,25.00
2022-10-31T13:23:54.497Z,24.40
2022-10-31T13:26:15.419Z,24.50
2022-10-31T13:28:56.688Z,25.00
2022-10-31T13:31:25.397Z,25.10
2022-10-31T13:34:05.984Z,24.70
2022-10-31T13:36:37.508Z,23.30
2022-10-31T13:39:31.693Z,23.50
2022-10-31T13:42:06.118Z,23.60
2022-10-31T13:44:38.733Z,23.20
2022-10-31T13:47:25.497Z,23.10
2022-10-31T13:49:55.652Z,22.80
2022-10-31T13:52:28.142Z,23.00
2022-10-31T13:54:59.534Z,23.00
2022-10-31T13:57:34.049Z,22.70
2022-10-31T14:00:04.697Z,23.10
2022-10-31T14:02:36.048Z,22.50
2022-10-31T14:05:10.008Z,21.80
2022-10-31T14:07:41.164Z,21.60
2022-10-31T14:10:24.547Z,21.40
2022-10-31T14:12:53.470Z,21.60
2022-10-31T14:15:24.818Z,21.40
2022-10-31T14:18:06.416Z,21.30
2022-10-31T14:20:43.022Z,21.20
2022-10-31T14:23:34.293Z,21.00
2022-10-31T14:26:32.508Z,20.40
2022-10-31T14:29:04.043Z,20.30
2022-10-31T14:31:40.979Z,20.30
2022-10-31T14:34:22.210Z,20.70
2022-10-31T14:37:10.517Z,21.00
2022-10-31T14:39:45.083Z,21.40
2022-10-31T14:42:32.953Z,21.50
2022-10-31T14:45:39.164Z,22.20
2022-10-31T14:48:30.522Z,22.80
2022-10-31T14:51:00.681Z,22.40
2022-10-31T14:53:32.521Z,22.30
2022-10-31T14:56:05.736Z,21.70
2022-10-31T15:01:03.654Z,20.80
2022-10-31T15:04:10.267Z,20.30
2022-10-31T15:06:24.039Z,20.20
2022-10-31T15:08:55.366Z,19.90
2022-10-31T15:11:26.731Z,19.60
2022-10-31T15:14:00.607Z,19.50
2022-10-31T15:19:03.633Z,19.20
2022-10-31T15:21:33.049Z,19.20
2022-10-31T15:24:04.908Z,19.20
2022-10-31T15:26:39.531Z,19.30
2022-10-31T15:29:16.987Z,19.10
2022-10-31T15:31:54.585Z,19.10
2022-10-31T15:34:37.960Z,18.90
2022-10-31T15:37:08.498Z,18.70
2022-10-31T15:39:36.977Z,18.50
2022-10-31T15:42:05.816Z,18.40
2022-10-31T15:44:37.818Z,18.40
2022-10-31T15:47:13.056Z,18.40
2022-10-31T15:49:42.248Z,18.20
2022-10-31T15:52:33.074Z,18.10
2022-10-31T15:55:05.299Z,18.00
2022-10-31T15:57:35.309Z,17.90
2022-10-31T16:00:04.130Z,17.90
2022-10-31T16:02:33.010Z,17.80
2022-10-31T16:05:03.374Z,17.80
2022-10-31T16:07:33.640Z,17.70
2022-10-31T16:10:04.940Z,17.70
2022-10-31T16:12:39.095Z,17.60
2022-10-31T16:15:10.808Z,17.40
2022-10-31T16:17:42.689Z,17.50
2022-10-31T16:20:28.587Z,17.50
2022-10-31T16:22:59.024Z,17.40
2022-10-31T16:25:39.227Z,17.20
2022-10-31T16:28:10.822Z,17.20
2022-10-31T16:30:47.757Z,17.20
2022-10-31T16:33:23.162Z,17.10
2022-10-31T16:35:56.150Z,17.00
2022-10-31T16:38:22.375Z,17.00
2022-10-31T16:40:53.013Z,16.90
2022-10-31T16:43:24.334Z,16.90
2022-10-31T16:45:54.127Z,16.70
2022-10-31T16:48:24.223Z,16.60
2022-10-31T16:50:54.840Z,16.50
2022-10-31T16:53:24.175Z,16.50
2022-10-31T16:56:00.207Z,16.30
2022-10-31T16:58:31.312Z,16.20
2022-10-31T17:01:05.100Z,16.10
2022-10-31T17:03:33.794Z,16.10
2022-10-31T17:06:02.549Z,16.30
2022-10-31T17:08:31.526Z,16.40
2022-10-31T17:11:00.885Z,16.40
2022-10-31T17:13:32.429Z,16.70
2022-10-31T17:16:02.712Z,16.80
2022-10-31T17:18:31.515Z,16.90
2022-10-31T17:21:02.139Z,16.90
2022-10-31T17:23:33.100Z,16.90
2022-10-31T17:26:01.996Z,17.00
2022-10-31T17:28:30.484Z,17.00
2022-10-31T17:30:59.417Z,17.10
2022-10-31T17:33:28.215Z,17.10
2022-10-31T17:35:57.030Z,17.00
2022-10-31T17:38:25.646Z,16.90
2022-10-31T17:40:54.177Z,17.10
2022-10-31T17:43:24.355Z,17.00
2022-10-31T17:45:52.943Z,17.10
2022-10-31T17:48:21.392Z,17.10
2022-10-31T17:50:49.999Z,17.20
2022-10-31T17:53:18.730Z,17.20
2022-10-31T17:55:47.371Z,17.20
2022-10-31T17:58:15.951Z,17.20
2022-10-31T18:00:47.304Z,17.20
2022-10-31T18:03:14.753Z,17.20
2022-10-31T18:05:46.297Z,17.30
2022-10-31T18:08:14.780Z,17.30
2022-10-31T18:10:43.349Z,17.40
2022-10-31T18:13:12.297Z,17.50
2022-10-31T18:15:41.371Z,17.50
2022-10-31T18:18:10.046Z,17.40
2022-10-31T18:20:38.617Z,17.60
2022-10-31T18:23:07.643Z,17.60
2022-10-31T18:25:38.171Z,17.60
2022-10-31T18:28:07.591Z,17.60
2022-10-31T18:30:42.169Z,17.70
2022-10-31T18:33:10.698Z,17.70
2022-10-31T18:35:40.510Z,17.60
2022-10-31T18:38:10.130Z,17.70
2022-10-31T18:40:39.201Z,17.60
2022-10-31T18:43:07.734Z,17.80
2022-10-31T18:45:56.921Z,17.70
2022-10-31T18:48:08.781Z,17.60
2022-10-31T18:50:40.262Z,17.70
2022-10-31T18:53:08.894Z,17.50
2022-10-31T18:55:44.126Z,17.70
2022-10-31T18:58:11.965Z,17.60
2022-10-31T19:00:40.523Z,17.60
2022-10-31T19:03:09.001Z,17.60
2022-10-31T19:05:37.582Z,17.50
2022-10-31T19:08:06.898Z,17.50
2022-10-31T19:10:41.949Z,17.50
2022-10-31T19:13:10.419Z,17.40
2022-10-31T19:15:38.888Z,17.50
2022-10-31T19:18:07.423Z,17.50
2022-10-31T19:20:38.130Z,17.50
2022-10-31T19:23:06.820Z,17.50
2022-10-31T19:25:35.324Z,17.40
2022-10-31T19:28:04.428Z,17.50
2022-10-31T19:30:33.217Z,17.50
2022-10-31T19:33:01.823Z,17.40
2022-10-31T19:35:33.192Z,17.30
2022-10-31T19:38:01.889Z,17.30
2022-10-31T19:40:30.600Z,17.20
2022-10-31T19:42:59.869Z,17.10
2022-10-31T19:45:31.324Z,17.10
2022-10-31T19:48:00.265Z,17.00
2022-10-31T19:50:29.639Z,17.00
2022-10-31T19:52:58.412Z,16.80
2022-10-31T19:55:27.440Z,16.90
2022-10-31T19:58:01.772Z,17.00
2022-10-31T20:00:26.267Z,16.90
2022-10-31T20:02:54.789Z,16.80
2022-10-31T20:05:23.364Z,16.80
2022-10-31T20:07:52.071Z,16.80
2022-10-31T20:10:20.772Z,16.80
2022-10-31T20:12:49.364Z,16.80
2022-10-31T20:15:19.066Z,16.80
2022-10-31T20:17:47.544Z,16.80
2022-10-31T20:20:16.247Z,16.90
2022-10-31T20:22:46.428Z,17.00
2022-10-31T20:25:15.075Z,16.90
2022-10-31T20:27:43.643Z,16.90
2022-10-31T20:30:12.977Z,16.90
2022-10-31T20:32:42.675Z,16.90
2022-10-31T20:35:11.670Z,16.70
2022-10-31T20:37:40.245Z,16.80
2022-10-31T20:40:09.548Z,16.70
2022-10-31T20:42:38.500Z,16.60
2022-10-31T20:45:07.397Z,16.70
2022-10-31T20:47:35.941Z,16.60
2022-10-31T20:50:05.244Z,16.60
2022-10-31T20:52:34.875Z,16.60
2022-10-31T20:55:03.515Z,16.60
2022-10-31T20:57:31.991Z,16.40
2022-10-31T21:00:00.621Z,16.50
2022-10-31T21:02:29.176Z,16.40
2022-10-31T21:04:58.267Z,16.40
2022-10-31T21:07:26.740Z,16.30
2022-10-31T21:09:55.240Z,16.30
2022-10-31T21:12:23.794Z,16.30
2022-10-31T21:14:52.403Z,16.30
2022-10-31T21:17:21.110Z,16.30
2022-10-31T21:19:49.660Z,16.30
2022-10-31T21:22:18.172Z,16.20
2022-10-31T21:24:46.746Z,16.30
2022-10-31T21:27:15.416Z,16.20
2022-10-31T21:29:43.913Z,16.30
2022-10-31T21:32:12.495Z,16.10
2022-10-31T21:34:40.977Z,16.20
2022-10-31T21:37:09.546Z,16.20
2022-10-31T21:39:38.472Z,16.30
2022-10-31T21:42:06.998Z,16.10
2022-10-31T21:44:35.542Z,16.40
2022-10-31T21:47:04.004Z,16.40
2022-10-31T21:49:32.539Z,16.60
2022-10-31T21:52:01.016Z,16.60
2022-10-31T21:54:30.182Z,16.60
2022-10-31T21:57:00.322Z,16.50
2022-10-31T21:59:28.869Z,16.50
2022-10-31T22:01:59.639Z,16.60
2022-10-31T22:04:29.291Z,16.70
2022-10-31T22:06:57.768Z,16.60
2022-10-31T22:09:26.359Z,16.70
2022-10-31T22:11:54.886Z,16.60
2022-10-31T22:14:23.508Z,16.60
2022-10-31T22:16:52.092Z,16.70
2022-10-31T22:19:20.583Z,16.70
2022-10-31T22:21:49.265Z,16.70
2022-10-31T22:24:18.519Z,16.80
2022-10-31T22:26:47.443Z,16.70
2022-10-31T22:29:18.698Z,16.80
2022-10-31T22:31:51.923Z,16.90
2022-10-31T22:34:19.466Z,16.70
2022-10-31T22:36:48.113Z,16.70
2022-10-31T22:39:16.617Z,16.70
2022-10-31T22:41:45.103Z,16.70
2022-10-31T22:44:13.652Z,16.80
2022-10-31T22:46:42.090Z,16.80
2022-10-31T22:49:15.715Z,16.80
2022-10-31T22:51:45.358Z,16.80
2022-10-31T22:54:17.074Z,16.70
2022-10-31T22:56:46.371Z,16.70
2022-10-31T22:59:16.435Z,16.70
2022-10-31T23:01:45.845Z,16.70
2022-10-31T23:04:16.423Z,16.80
2022-10-31T23:06:45.737Z,16.80
2022-10-31T23:09:16.436Z,16.80
2022-10-31T23:11:45.578Z,16.80
2022-10-31T23:14:19.323Z,17.00
2022-10-31T23:16:53.690Z,17.00
2022-10-31T23:19:27.600Z,17.00
2022-10-31T23:22:02.134Z,17.20
2022-10-31T23:24:36.618Z,17.30
2022-10-31T23:27:13.743Z,17.30
2022-10-31T23:29:47.458Z,17.40
2022-10-31T23:32:30.461Z,17.40
2022-10-31T23:35:01.333Z,17.40
2022-10-31T23:37:32.295Z,17.50
2022-10-31T23:40:01.384Z,17.60
2022-10-31T23:42:30.334Z,17.50
2022-10-31T23:44:58.879Z,17.60
2022-10-31T23:47:27.531Z,17.70
2022-10-31T23:49:56.122Z,18.00
2022-10-31T23:52:24.752Z,18.00
2022-10-31T23:54:53.367Z,17.90
2022-10-31T23:57:21.882Z,18.00
2022-10-31T23:59:50.460Z,18.10
